Time;durP1;ratioP1;P1;durP2;ratioP2;P2;SDS_P1;SDS_P2;PMS_P1;PMS_P2;Temp;Humidity;BMP_temperature;BMP_pressure;BME280_temperature;BME280_humidity;BME280_pressure;Samples;Min_cycle;Max_cycle;Signal;HPM_P1;HPM_P2
2021/06/08 00:00:20;;;;;;;10.43;8.18;;;;;;;16.57;75.98;99393.66;3598084;40;20084;-62
2021/06/08 00:02:48;;;;;;;8.82;7.93;;;;;;;16.49;75.86;99392.09;3598289;40;20397;-61
2021/06/08 00:05:15;;;;;;;8.32;7.32;;;;;;;16.48;76.03;99397.63;3598398;39;20048;-61
2021/06/08 00:07:42;;;;;;;10.90;7.88;;;;;;;16.52;76.56;99394.31;3589806;40;20553;-61
2021/06/08 00:10:13;;;;;;;8.68;7.78;;;;;;;16.55;76.28;99390.38;3600001;40;20055;-61
2021/06/08 00:12:41;;;;;;;9.77;7.60;;;;;;;16.53;76.43;99393.28;3600119;40;20074;-61
2021/06/08 00:15:10;;;;;;;9.23;8.32;;;;;;;16.54;76.08;99394.91;3599960;40;20392;-61
2021/06/08 00:17:37;;;;;;;11.60;9.02;;;;;;;16.48;76.46;99395.75;3590183;40;20024;-61
2021/06/08 00:20:05;;;;;;;8.27;7.47;;;;;;;16.46;76.08;99397.84;3599529;40;20119;-60
2021/06/08 00:22:33;;;;;;;9.00;8.10;;;;;;;16.42;76.63;99396.66;3600148;40;20059;-61
2021/06/08 00:25:01;;;;;;;9.48;7.57;;;;;;;16.44;76.48;99399.91;3590837;40;20056;-61
2021/06/08 00:27:29;;;;;;;11.35;8.18;;;;;;;16.47;76.17;99402.16;3599670;40;20063;-61
2021/06/08 00:29:57;;;;;;;11.77;8.38;;;;;;;16.52;76.12;99409.50;3599762;40;20051;-61
2021/06/08 00:32:24;;;;;;;10.18;8.05;;;;;;;16.50;75.83;99401.72;3599471;40;20094;-61
2021/06/08 00:34:52;;;;;;;9.52;8.23;;;;;;;16.43;76.21;99406.28;3599700;40;20049;-61
2021/06/08 00:37:19;;;;;;;9.02;8.13;;;;;;;16.42;76.00;99407.31;3599224;40;20059;-61
2021/06/08 00:39:46;;;;;;;9.75;7.97;;;;;;;16.36;76.49;99397.50;3599617;40;20052;-62
2021/06/08 00:42:13;;;;;;;10.90;8.15;;;;;;;16.25;76.75;99399.03;3599471;40;20052;-62
2021/06/08 00:44:42;;;;;;;10.50;8.10;;;;;;;16.20;76.97;99390.00;3589965;40;20076;-62
2021/06/08 00:47:09;;;;;;;12.30;8.55;;;;;;;16.18;76.89;99392.09;3599161;40;20052;-62
2021/06/08 00:49:37;;;;;;;9.32;8.43;;;;;;;16.09;76.77;99392.34;3599573;40;20346;-62
2021/06/08 00:52:04;;;;;;;10.55;9.02;;;;;;;16.03;76.96;99390.50;3599130;40;20052;-62
2021/06/08 00:54:31;;;;;;;10.32;9.02;;;;;;;16.01;77.42;99391.78;3590041;40;20044;-62
2021/06/08 00:56:59;;;;;;;11.38;9.48;;;;;;;15.94;77.67;99397.13;3598902;40;20035;-62
2021/06/08 00:59:26;;;;;;;9.30;8.30;;;;;;;15.92;77.80;99390.34;3599328;40;20055;-62
2021/06/08 01:01:55;;;;;;;10.27;9.25;;;;;;;15.90;77.66;99392.44;3599361;40;20414;-62
2021/06/08 01:04:23;;;;;;;9.60;8.63;;;;;;;15.94;77.93;99390.97;3599203;40;20055;-62
2021/06/08 01:06:50;;;;;;;12.45;10.02;;;;;;;15.83;77.61;99393.28;3599351;40;20048;-62
2021/06/08 01:09:17;;;;;;;11.00;9.20;;;;;;;15.82;78.16;99391.63;3598887;40;20330;-62
2021/06/08 01:11:44;;;;;;;10.93;9.13;;;;;;;15.81;77.79;99389.19;3599240;40;20092;-62
2021/06/08 01:14:12;;;;;;;10.50;8.30;;;;;;;15.85;77.75;99387.75;3599242;40;20084;-62
2021/06/08 01:16:39;;;;;;;11.57;8.73;;;;;;;15.90;77.99;99381.78;3599296;40;20040;-62
2021/06/08 01:19:08;;;;;;;11.15;9.38;;;;;;;15.92;77.58;99379.69;3598637;40;20039;-62
2021/06/08 01:21:37;;;;;;;10.73;9.52;;;;;;;15.93;78.01;99378.69;3599060;40;20051;-62
2021/06/08 01:24:05;;;;;;;9.93;8.93;;;;;;;15.97;77.58;99377.22;3599765;40;20058;-63
2021/06/08 01:26:33;;;;;;;10.38;8.48;;;;;;;15.99;77.80;99367.16;3599067;40;20050;-62
2021/06/08 01:29:01;;;;;;;11.45;8.90;;;;;;;15.96;77.84;99380.91;3598657;40;20047;-62
2021/06/08 01:31:31;;;;;;;9.85;8.40;;;;;;;15.96;77.46;99379.09;3599024;40;20048;-62
2021/06/08 01:33:59;;;;;;;10.70;9.20;;;;;;;16.01;77.31;99378.44;3599243;40;20052;-62
2021/06/08 01:36:29;;;;;;;11.23;8.52;;;;;;;16.03;77.44;99376.34;3589701;40;20055;-62
2021/06/08 01:38:59;;;;;;;11.38;9.00;;;;;;;16.05;77.19;99376.97;3599346;40;20051;-62
2021/06/08 01:41:27;;;;;;;15.43;10.32;;;;;;;16.06;77.34;99382.09;3599144;40;20055;-62
2021/06/08 01:43:54;;;;;;;11.23;10.02;;;;;;;16.07;77.08;99377.56;3599406;40;20058;-62
2021/06/08 01:46:22;;;;;;;10.05;8.73;;;;;;;16.12;77.38;99392.91;3599668;40;20111;-62
2021/06/08 01:48:50;;;;;;;10.50;8.75;;;;;;;16.10;77.08;99390.47;3590048;40;20055;-62
2021/06/08 01:51:25;;;;;;;10.65;9.55;;;;;;;16.09;76.88;99392.34;3599150;40;20052;-62
2021/06/08 01:53:58;;;;;;;11.57;9.57;;;;;;;16.10;76.87;99395.81;3599144;40;20052;-62
2021/06/08 01:56:28;;;;;;;11.02;9.38;;;;;;;16.07;76.95;99390.91;3600575;40;20052;-62
2021/06/08 01:59:11;;;;;;;10.52;8.90;;;;;;;16.08;76.99;99396.03;3591081;40;20051;-62
2021/06/08 02:01:52;;;;;;;13.60;9.23;;;;;;;16.10;77.36;99393.16;3600644;40;20048;-62
2021/06/08 02:04:24;;;;;;;9.68;8.50;;;;;;;16.12;77.22;99400.94;3590010;40;20068;-62
2021/06/08 02:07:02;;;;;;;10.32;8.43;;;;;;;16.09;76.92;99399.53;3599325;40;20408;-62
2021/06/08 02:09:37;;;;;;;10.35;9.05;;;;;;;16.03;77.20;99397.69;3599315;40;20044;-62
2021/06/08 02:12:14;;;;;;;10.10;8.85;;;;;;;16.03;76.88;99401.19;3599654;40;20067;-62
2021/06/08 02:14:47;;;;;;;10.48;8.88;;;;;;;16.09;77.29;99407.53;3589613;40;20066;-62
2021/06/08 02:17:18;;;;;;;9.32;8.32;;;;;;;16.14;76.80;99414.88;3589615;40;20072;-63
2021/06/08 02:19:49;;;;;;;10.23;9.23;;;;;;;16.15;76.89;99419.19;3599094;40;20052;-64
2021/06/08 02:22:22;;;;;;;13.63;9.75;;;;;;;16.19;76.76;99409.72;3598959;40;20302;-62
2021/06/08 02:24:50;;;;;;;9.55;8.55;;;;;;;16.14;76.99;99410.34;3598896;40;20083;-62
2021/06/08 02:27:23;;;;;;;10.77;8.73;;;;;;;16.10;77.15;99403.81;3598401;40;20388;-62
2021/06/08 02:29:53;;;;;;;9.98;8.52;;;;;;;16.07;76.93;99413.06;3633814;22;20056;-61
2021/06/08 02:32:21;;;;;;;12.02;9.70;;;;;;;16.04;76.90;99410.00;3598872;40;20084;-61
2021/06/08 02:34:50;;;;;;;10.07;8.88;;;;;;;16.04;77.08;99412.66;3598904;40;20085;-61
2021/06/08 02:37:19;;;;;;;12.70;9.07;;;;;;;16.08;77.08;99411.19;3599391;40;20051;-61
2021/06/08 02:39:48;;;;;;;15.07;9.10;;;;;;;16.09;76.63;99408.34;3598863;40;20068;-61
2021/06/08 02:42:19;;;;;;;10.45;9.45;;;;;;;16.07;77.15;99410.38;3598953;40;20384;-61
2021/06/08 02:44:47;;;;;;;10.75;9.18;;;;;;;16.05;77.04;99412.47;3598781;40;20083;-60
2021/06/08 02:47:15;;;;;;;12.55;9.77;;;;;;;16.03;77.09;99419.84;3598592;40;20091;-60
2021/06/08 02:49:43;;;;;;;10.27;9.10;;;;;;;15.97;77.29;99417.22;3598754;40;20051;-61
2021/06/08 02:52:11;;;;;;;12.75;10.07;;;;;;;16.02;77.28;99420.88;3589290;40;20107;-61
2021/06/08 02:54:39;;;;;;;11.90;10.23;;;;;;;16.03;76.91;99421.69;3598883;40;20055;-61
2021/06/08 02:57:08;;;;;;;11.98;9.65;;;;;;;16.03;77.28;99419.03;3589143;40;20056;-60
2021/06/08 02:59:39;;;;;;;10.38;9.27;;;;;;;16.07;76.88;99421.06;3589311;40;20036;-61
2021/06/08 03:02:11;;;;;;;10.80;9.38;;;;;;;16.13;76.83;99422.06;3599143;40;20046;-61
2021/06/08 03:04:45;;;;;;;10.27;8.80;;;;;;;16.16;76.62;99423.47;3598655;40;20535;-61
2021/06/08 03:07:14;;;;;;;16.25;10.40;;;;;;;16.09;76.71;99413.66;3598552;40;20056;-61
2021/06/08 03:09:51;;;;;;;12.15;10.13;;;;;;;16.05;77.36;99411.66;3598732;40;20334;-61
2021/06/08 03:12:21;;;;;;;14.80;10.88;;;;;;;16.07;77.02;99418.38;3589759;40;20059;-61
2021/06/08 03:14:52;;;;;;;12.43;10.50;;;;;;;16.05;76.76;99414.31;3599066;40;20048;-61
2021/06/08 03:17:24;;;;;;;11.32;10.00;;;;;;;16.07;77.17;99420.25;3598164;40;20020;-61
2021/06/08 03:19:54;;;;;;;12.03;10.50;;;;;;;16.02;77.39;99417.41;3598943;40;20305;-61
2021/06/08 03:22:23;;;;;;;11.20;10.10;;;;;;;15.94;77.43;99414.97;3598784;40;20044;-62
2021/06/08 03:24:56;;;;;;;12.50;11.20;;;;;;;15.83;77.40;99419.13;3598938;40;20056;-61
2021/06/08 03:27:24;;;;;;;11.60;10.40;;;;;;;15.78;78.08;99418.94;3598687;40;20401;-62
2021/06/08 03:29:56;;;;;;;13.98;11.57;;;;;;;15.76;78.18;99415.69;3598484;40;20036;-61
2021/06/08 03:32:24;;;;;;;12.52;11.13;;;;;;;15.73;78.36;99411.56;3598489;40;20044;-62
2021/06/08 03:34:52;;;;;;;15.25;11.45;;;;;;;15.77;78.75;99418.13;3598913;40;20056;-62
2021/06/08 03:37:21;;;;;;;14.50;12.02;;;;;;;15.80;78.06;99416.91;3598490;40;20043;-62
2021/06/08 03:39:49;;;;;;;18.50;11.93;;;;;;;15.84;78.33;99415.44;3598571;40;20048;-62
2021/06/08 03:42:17;;;;;;;19.48;15.25;;;;;;;15.88;78.21;99411.31;3600098;39;20056;-61
2021/06/08 03:44:45;;;;;;;14.23;12.73;;;;;;;15.90;78.45;99414.59;3600173;40;20075;-61
2021/06/08 03:47:17;;;;;;;18.65;12.98;;;;;;;15.91;77.92;99410.06;3599750;40;20490;-61
2021/06/08 03:49:45;;;;;;;18.48;13.95;;;;;;;15.93;78.54;99410.69;3600072;40;20040;-61
2021/06/08 03:52:12;;;;;;;14.02;11.35;;;;;;;16.00;77.94;99411.44;3590627;40;20047;-61
2021/06/08 03:54:40;;;;;;;14.07;11.57;;;;;;;16.03;78.04;99414.50;3599848;40;20048;-62
2021/06/08 03:57:08;;;;;;;14.90;12.25;;;;;;;16.18;77.59;99418.75;3599822;40;20076;-61
2021/06/08 03:59:36;;;;;;;14.57;11.02;;;;;;;16.25;77.79;99415.03;3601408;40;20040;-61
2021/06/08 04:02:05;;;;;;;10.82;9.45;;;;;;;16.31;77.33;99424.00;3600324;40;20044;-61
2021/06/08 04:04:34;;;;;;;10.68;9.60;;;;;;;16.30;77.48;99417.84;3600174;40;20452;-61
2021/06/08 04:07:02;;;;;;;13.07;10.68;;;;;;;16.33;77.43;99420.09;3592047;40;20078;-63
2021/06/08 04:09:29;;;;;;;11.80;9.43;;;;;;;16.40;77.33;99422.72;3601518;40;20044;-61
2021/06/08 04:11:57;;;;;;;15.32;11.20;;;;;;;16.50;77.32;99427.59;3601533;40;20385;-61
2021/06/08 04:14:24;;;;;;;14.18;11.23;;;;;;;16.56;76.98;99424.03;3602272;40;20048;-61
2021/06/08 04:16:52;;;;;;;12.70;10.40;;;;;;;16.60;76.82;99428.72;3602866;40;20047;-61
2021/06/08 04:19:20;;;;;;;15.35;12.70;;;;;;;16.67;76.81;99422.53;3600272;40;20047;-61
2021/06/08 04:21:51;;;;;;;12.82;11.35;;;;;;;16.70;76.21;99427.47;3599747;40;20079;-61
2021/06/08 04:24:18;;;;;;;14.75;12.13;;;;;;;16.75;75.94;99423.13;3599827;40;20052;-61
2021/06/08 04:26:45;;;;;;;12.45;10.55;;;;;;;16.78;76.05;99424.56;3599722;40;20132;-61
2021/06/08 04:29:13;;;;;;;13.63;10.65;;;;;;;16.78;76.02;99422.69;3599338;40;20048;-62
2021/06/08 04:31:41;;;;;;;15.05;10.75;;;;;;;16.79;75.63;99423.50;3599970;40;20052;-61
2021/06/08 04:34:08;;;;;;;15.85;11.80;;;;;;;16.87;75.81;99425.09;3600841;40;20059;-61
2021/06/08 04:36:36;;;;;;;14.90;10.82;;;;;;;16.92;75.43;99431.41;3601664;40;20076;-61
2021/06/08 04:39:04;;;;;;;13.18;10.73;;;;;;;17.00;75.15;99424.97;3601710;40;20054;-62
2021/06/08 04:41:32;;;;;;;13.88;11.55;;;;;;;17.01;75.20;99426.59;3602120;40;20051;-60
2021/06/08 04:44:00;;;;;;;15.50;11.73;;;;;;;17.03;75.24;99429.88;3601924;40;20055;-62
2021/06/08 04:46:27;;;;;;;14.63;11.57;;;;;;;17.00;74.70;99436.47;3602249;40;20075;-62
2021/06/08 04:48:55;;;;;;;12.25;11.02;;;;;;;16.95;74.91;99425.63;3601528;40;20071;-63
2021/06/08 04:51:22;;;;;;;14.55;12.13;;;;;;;16.91;75.05;99426.28;3601988;40;20048;-61
2021/06/08 04:53:50;;;;;;;13.55;11.43;;;;;;;16.92;75.22;99426.06;3601870;39;20234;-62
2021/06/08 04:56:19;;;;;;;13.70;11.77;;;;;;;16.92;74.88;99425.25;3602106;40;20312;-62
2021/06/08 04:58:46;;;;;;;15.52;11.93;;;;;;;16.93;75.13;99425.03;3592092;40;20074;-61
2021/06/08 05:01:23;;;;;;;14.00;12.50;;;;;;;16.92;75.02;99423.38;3601490;40;20052;-61
2021/06/08 05:03:55;;;;;;;15.98;12.73;;;;;;;16.91;74.70;99424.44;3600885;40;20133;-61
2021/06/08 05:06:29;;;;;;;13.20;11.85;;;;;;;16.95;74.69;99425.63;3601611;40;20047;-62
2021/06/08 05:09:01;;;;;;;15.88;12.90;;;;;;;16.96;74.98;99437.13;3601568;40;20047;-61
2021/06/08 05:11:34;;;;;;;14.23;12.23;;;;;;;16.95;74.99;99433.63;3592359;40;20087;-60
2021/06/08 05:14:05;;;;;;;13.05;11.75;;;;;;;17.00;74.99;99425.78;3602047;40;20048;-61
2021/06/08 05:16:32;;;;;;;17.35;13.65;;;;;;;17.04;74.75;99435.00;3601741;40;20385;-61
2021/06/08 05:19:01;;;;;;;14.80;12.95;;;;;;;17.03;74.45;99436.03;3600997;40;20121;-61
2021/06/08 05:21:29;;;;;;;17.10;12.38;;;;;;;17.08;74.82;99449.53;3601119;40;20080;-62
2021/06/08 05:23:58;;;;;;;19.02;12.88;;;;;;;17.13;74.78;99446.22;3600610;40;20087;-61
2021/06/08 05:26:26;;;;;;;14.20;12.70;;;;;;;17.22;74.14;99442.22;3599885;40;20084;-62
2021/06/08 05:28:56;;;;;;;16.73;13.98;;;;;;;17.29;73.93;99442.16;3599617;40;20075;-61
2021/06/08 05:31:23;;;;;;;14.73;12.43;;;;;;;17.33;73.79;99440.69;3599706;40;20040;-62
2021/06/08 05:33:57;;;;;;;14.90;13.13;;;;;;;17.31;73.85;99434.75;3599802;40;20056;-62
2021/06/08 05:36:29;;;;;;;17.15;12.73;;;;;;;17.32;74.08;99442.53;3599702;40;20052;-61
2021/06/08 05:38:56;;;;;;;15.52;13.02;;;;;;;17.37;73.52;99441.06;3599163;40;20084;-61
2021/06/08 05:41:23;;;;;;;21.10;14.52;;;;;;;17.40;73.99;99440.63;3599344;40;20081;-61
2021/06/08 05:43:51;;;;;;;15.52;13.10;;;;;;;17.39;73.87;99447.00;3590255;40;20044;-61
2021/06/08 05:46:19;;;;;;;19.70;13.93;;;;;;;17.43;73.69;99443.69;3599210;40;20052;-61
2021/06/08 05:48:47;;;;;;;18.15;13.82;;;;;;;17.40;73.38;99440.63;3598956;40;20048;-61
2021/06/08 05:51:14;;;;;;;19.95;15.75;;;;;;;17.34;73.46;99443.13;3600260;40;20063;-61
2021/06/08 05:53:45;;;;;;;22.45;16.80;;;;;;;17.29;73.53;99442.16;3599197;40;20040;-61
2021/06/08 05:56:13;;;;;;;21.08;15.07;;;;;;;17.30;73.71;99444.59;3589798;40;20052;-60
2021/06/08 05:58:40;;;;;;;16.42;14.13;;;;;;;17.30;73.89;99444.59;3598839;40;20568;-62
2021/06/08 06:01:10;;;;;;;15.98;13.75;;;;;;;17.32;73.94;99444.41;3599145;40;20048;-62
2021/06/08 06:03:40;;;;;;;16.25;13.35;;;;;;;17.34;73.76;99443.13;3589586;40;20392;-62
2021/06/08 06:06:08;;;;;;;18.95;14.88;;;;;;;17.38;73.70;99448.03;3599019;40;20044;-61
2021/06/08 06:08:36;;;;;;;17.63;14.57;;;;;;;17.39;73.47;99445.16;3598988;40;20028;-62
2021/06/08 06:11:07;;;;;;;18.45;14.63;;;;;;;17.46;73.27;99448.56;3599355;40;20076;-62
2021/06/08 06:13:39;;;;;;;15.10;12.95;;;;;;;17.54;73.32;99442.94;3599651;40;20075;-62
2021/06/08 06:16:07;;;;;;;17.10;13.65;;;;;;;17.61;73.19;99442.06;3599499;40;20124;-61
2021/06/08 06:18:35;;;;;;;18.55;14.07;;;;;;;17.65;73.14;99448.59;3599046;40;20443;-61
2021/06/08 06:21:04;;;;;;;20.58;14.98;;;;;;;17.62;72.82;99444.50;3599715;40;20084;-62
2021/06/08 06:23:34;;;;;;;17.30;14.23;;;;;;;17.65;72.61;99445.91;3599548;40;20051;-61
2021/06/08 06:26:01;;;;;;;20.02;14.00;;;;;;;17.65;72.26;99446.72;3599646;40;20072;-61
2021/06/08 06:28:29;;;;;;;19.92;13.80;;;;;;;17.62;72.61;99449.03;3589731;40;20397;-61
2021/06/08 06:30:57;;;;;;;17.48;12.85;;;;;;;17.65;72.67;99454.75;3599748;40;20043;-61
2021/06/08 06:33:25;;;;;;;18.70;14.07;;;;;;;17.60;72.43;99459.13;3590332;40;20443;-60
2021/06/08 06:35:56;;;;;;;17.50;14.18;;;;;;;17.64;72.11;99452.31;3598974;40;20052;-62
2021/06/08 06:38:29;;;;;;;15.32;13.57;;;;;;;17.67;72.52;99457.19;3598737;40;20316;-61
2021/06/08 06:41:02;;;;;;;15.10;13.50;;;;;;;17.67;72.34;99452.66;3589505;40;20088;-61
2021/06/08 06:43:35;;;;;;;15.23;13.25;;;;;;;17.72;72.61;99454.69;3598847;40;20064;-61
2021/06/08 06:46:03;;;;;;;18.30;14.75;;;;;;;17.76;72.34;99463.94;3598925;40;20050;-61
2021/06/08 06:48:31;;;;;;;16.10;14.20;;;;;;;17.82;72.33;99468.38;3598563;40;20036;-62
2021/06/08 06:50:58;;;;;;;17.05;14.73;;;;;;;17.92;72.20;99470.50;3599099;40;20048;-61
2021/06/08 06:53:27;;;;;;;18.35;13.82;;;;;;;17.99;71.72;99473.94;3589558;40;20141;-61
2021/06/08 06:55:54;;;;;;;17.88;14.60;;;;;;;18.03;71.68;99465.22;3598736;40;20039;-62
2021/06/08 06:58:23;;;;;;;18.88;14.35;;;;;;;18.07;71.37;99469.09;3598653;40;20035;-61
2021/06/08 07:00:52;;;;;;;17.58;14.43;;;;;;;18.19;70.95;99471.00;3598976;40;20112;-60
2021/06/08 07:03:27;;;;;;;18.25;13.82;;;;;;;18.21;71.06;99472.44;3598793;40;20054;-61
2021/06/08 07:05:55;;;;;;;14.50;13.10;;;;;;;18.26;71.01;99469.06;3598953;40;20076;-62
2021/06/08 07:08:23;;;;;;;14.77;13.23;;;;;;;18.36;70.67;99460.47;3589275;40;20412;-61
2021/06/08 07:10:54;;;;;;;18.65;13.98;;;;;;;18.43;70.66;99458.53;3598713;40;20059;-60
2021/06/08 07:13:22;;;;;;;18.95;14.10;;;;;;;18.42;70.59;99462.25;3598642;40;20389;-61
2021/06/08 07:15:51;;;;;;;16.45;13.00;;;;;;;18.50;70.18;99468.13;3598438;40;20048;-61
2021/06/08 07:18:19;;;;;;;19.25;15.40;;;;;;;18.63;69.83;99463.59;3598252;40;20055;-61
2021/06/08 07:20:47;;;;;;;16.38;13.73;;;;;;;18.76;69.95;99461.56;3598439;40;20040;-62
2021/06/08 07:23:18;;;;;;;15.85;13.68;;;;;;;18.83;69.39;99461.47;3598313;40;20044;-61
2021/06/08 07:25:48;;;;;;;16.85;13.82;;;;;;;18.95;69.21;99464.19;3599046;40;20051;-61
2021/06/08 07:28:18;;;;;;;14.57;13.07;;;;;;;19.09;68.57;99462.91;3598448;40;20050;-61
2021/06/08 07:30:46;;;;;;;16.20;12.27;;;;;;;19.11;68.26;99455.47;3598756;40;20040;-60
2021/06/08 07:33:22;;;;;;;13.80;12.32;;;;;;;19.19;67.89;99468.50;3588807;40;20071;-63
2021/06/08 07:35:53;;;;;;;13.70;12.38;;;;;;;19.21;67.94;99465.59;3589119;40;20434;-62
2021/06/08 07:38:28;;;;;;;16.33;13.73;;;;;;;19.22;67.59;99465.34;3598331;40;20079;-62
2021/06/08 07:40:58;;;;;;;15.00;12.35;;;;;;;19.22;67.18;99468.03;3598399;40;20056;-60
2021/06/08 07:43:34;;;;;;;15.57;13.90;;;;;;;19.22;67.63;99468.03;3598831;40;20032;-60
2021/06/08 07:46:07;;;;;;;15.55;13.95;;;;;;;19.13;67.26;99460.56;3598655;40;20047;-60
2021/06/08 07:48:38;;;;;;;14.52;12.02;;;;;;;19.11;67.24;99473.41;3598151;40;20088;-60
2021/06/08 07:51:06;;;;;;;16.45;13.48;;;;;;;19.18;67.47;99466.03;3598564;40;20088;-60
2021/06/08 07:53:33;;;;;;;13.98;12.65;;;;;;;19.23;66.85;99469.69;3598158;40;20087;-60
2021/06/08 07:56:01;;;;;;;15.77;12.27;;;;;;;19.18;66.82;99466.84;3589150;40;20394;-61
2021/06/08 07:58:30;;;;;;;13.65;12.35;;;;;;;19.09;66.49;99467.44;3597960;40;20127;-61
2021/06/08 08:00:59;;;;;;;15.43;13.82;;;;;;;19.03;66.80;99470.00;3598184;40;20059;-62
2021/06/08 08:03:28;;;;;;;15.90;13.95;;;;;;;18.99;66.84;99473.38;3598231;40;20324;-62
2021/06/08 08:05:59;;;;;;;16.42;13.73;;;;;;;18.95;67.15;99480.25;3589247;40;20052;-62
2021/06/08 08:08:27;;;;;;;13.20;11.50;;;;;;;18.93;67.42;99475.09;3598749;40;20047;-63
2021/06/08 08:10:55;;;;;;;14.43;13.02;;;;;;;19.03;67.02;99471.88;3601870;40;20044;-61
2021/06/08 08:13:25;;;;;;;15.40;13.43;;;;;;;19.05;66.76;99475.13;3594318;40;20134;-61
2021/06/08 08:16:04;;;;;;;16.15;14.45;;;;;;;19.06;67.09;99476.75;3603561;40;20024;-61
2021/06/08 08:18:33;;;;;;;16.98;12.95;;;;;;;18.99;67.27;99470.69;3597817;40;20052;-61
2021/06/08 08:21:00;;;;;;;14.82;11.38;;;;;;;19.16;67.53;99473.50;3598024;40;20320;-61
2021/06/08 08:23:30;;;;;;;15.45;13.85;;;;;;;19.22;66.68;99470.69;3598059;40;20088;-61
2021/06/08 08:25:59;;;;;;;19.38;17.38;;;;;;;19.34;66.61;99469.91;3598188;40;20057;-62
2021/06/08 08:28:27;;;;;;;14.98;13.43;;;;;;;19.41;66.46;99465.25;3589668;40;20080;-62
2021/06/08 08:30:57;;;;;;;14.63;13.13;;;;;;;19.45;66.52;99463.72;3663307;22;20138;-65
2021/06/08 08:33:28;;;;;;;17.88;15.80;;;;;;;19.60;65.94;99461.38;3612924;39;20039;-66
2021/06/08 08:35:55;;;;;;;18.98;14.23;;;;;;;19.73;65.32;99461.16;3612430;39;20101;-66
2021/06/08 08:38:23;;;;;;;17.75;13.93;;;;;;;19.80;64.66;99450.31;3602904;39;20067;-67
2021/06/08 08:40:51;;;;;;;17.50;14.18;;;;;;;19.91;64.50;99456.69;3612737;39;20047;-65
2021/06/08 08:43:39;;;;;;;14.27;12.35;;;;;;;19.97;64.22;99453.88;3611873;39;20031;-66
2021/06/08 08:46:07;;;;;;;14.25;12.13;;;;;;;20.11;64.66;99449.03;3611085;39;20028;-65
2021/06/08 08:48:38;;;;;;;15.50;12.80;;;;;;;20.33;64.40;99453.72;3610718;39;20071;-65
2021/06/08 08:51:06;;;;;;;15.82;14.02;;;;;;;20.58;63.00;99446.19;3610172;39;20052;-66
2021/06/08 08:53:36;;;;;;;12.70;11.40;;;;;;;20.52;63.04;99447.13;3611567;39;20031;-66
2021/06/08 08:56:25;;;;;;;11.45;10.25;;;;;;;20.75;62.92;99446.19;3600906;39;20036;-65
2021/06/08 08:58:53;;;;;;;12.48;11.27;;;;;;;20.71;62.13;99443.16;3610013;39;20059;-66
2021/06/08 09:01:21;;;;;;;11.75;10.65;;;;;;;20.93;62.42;99445.94;3600965;39;20047;-65
2021/06/08 09:03:51;;;;;;;13.90;12.50;;;;;;;21.21;61.68;99450.41;3610387;39;20080;-67
2021/06/08 09:06:19;;;;;;;12.20;10.20;;;;;;;21.37;60.98;99439.91;3609956;39;20038;-65
2021/06/08 09:08:46;;;;;;;12.23;11.10;;;;;;;21.54;60.23;99443.38;3609948;39;20418;-66
2021/06/08 09:11:14;;;;;;;15.32;11.27;;;;;;;21.56;59.69;99440.44;3610078;39;20134;-66
2021/06/08 09:13:42;;;;;;;12.35;11.15;;;;;;;21.45;59.28;99444.88;3611770;39;20056;-67
2021/06/08 09:16:09;;;;;;;12.75;11.55;;;;;;;21.32;59.81;99446.03;3610865;39;20019;-66
2021/06/08 09:18:37;;;;;;;11.73;10.60;;;;;;;21.41;59.99;99446.41;3600118;39;20381;-65
2021/06/08 09:21:15;;;;;;;11.38;9.88;;;;;;;21.73;59.83;99443.91;3609516;39;20055;-66
2021/06/08 09:23:42;;;;;;;12.00;10.80;;;;;;;21.84;59.54;99442.97;3609781;39;20388;-64
2021/06/08 09:26:11;;;;;;;12.70;11.50;;;;;;;21.94;59.05;99436.88;3600018;39;20094;-65
2021/06/08 09:28:39;;;;;;;12.88;11.55;;;;;;;22.12;58.50;99433.84;3609136;39;20079;-65
2021/06/08 09:31:12;;;;;;;15.75;10.25;;;;;;;22.16;58.28;99437.69;3609427;39;20047;-65
2021/06/08 09:33:42;;;;;;;14.82;9.95;;;;;;;22.32;58.03;99443.25;3600332;39;20143;-65
2021/06/08 09:36:14;;;;;;;11.68;9.88;;;;;;;22.41;57.79;99442.53;3609541;39;20102;-63
2021/06/08 09:38:44;;;;;;;11.95;10.68;;;;;;;22.58;57.46;99436.22;3609176;39;20048;-65
2021/06/08 09:41:18;;;;;;;12.30;11.10;;;;;;;22.70;56.66;99435.00;3609648;39;20044;-65
2021/06/08 09:43:51;;;;;;;10.55;9.48;;;;;;;22.77;57.14;99437.47;3600272;39;20055;-67
2021/06/08 09:46:18;;;;;;;10.75;9.80;;;;;;;22.90;56.55;99438.91;3609750;39;20124;-64
2021/06/08 09:48:51;;;;;;;11.45;9.77;;;;;;;22.84;56.57;99429.16;3600609;39;20027;-66
2021/06/08 09:51:20;;;;;;;10.85;9.85;;;;;;;22.92;56.76;99434.13;3610140;39;20052;-65
2021/06/08 09:53:47;;;;;;;10.57;9.50;;;;;;;22.87;56.40;99437.56;3610148;39;20052;-66
2021/06/08 09:56:16;;;;;;;11.88;10.07;;;;;;;22.91;56.34;99441.41;3610753;39;20447;-65
2021/06/08 09:58:45;;;;;;;13.35;12.05;;;;;;;23.09;55.65;99434.78;3610500;39;20069;-64
2021/06/08 10:01:27;;;;;;;15.70;10.98;;;;;;;23.06;55.45;99443.38;3601824;39;20047;-66
2021/06/08 10:03:55;;;;;;;12.45;11.25;;;;;;;22.66;55.58;99438.47;3602801;39;20370;-67
2021/06/08 10:06:27;;;;;;;12.77;11.48;;;;;;;22.67;55.33;99432.81;3612588;39;20043;-64
2021/06/08 10:09:05;;;;;;;15.93;12.63;;;;;;;22.62;55.91;99440.84;3612426;39;20043;-67
2021/06/08 10:11:35;;;;;;;11.48;10.35;;;;;;;22.61;56.39;99441.09;3612921;39;20051;-67
2021/06/08 10:14:10;;;;;;;13.75;11.25;;;;;;;22.70;56.03;99437.69;3613940;39;20345;-64
2021/06/08 10:16:38;;;;;;;12.10;10.88;;;;;;;22.68;56.05;99437.13;3612893;39;20436;-64
2021/06/08 10:19:06;;;;;;;13.45;12.07;;;;;;;22.70;55.79;99435.00;3610749;39;20044;-66
2021/06/08 10:21:47;;;;;;;12.63;11.43;;;;;;;22.63;56.19;99438.97;3600847;39;20047;-65
2021/06/08 10:24:17;;;;;;;12.15;10.85;;;;;;;22.75;56.08;99439.63;3609798;39;20038;-65
2021/06/08 10:26:49;;;;;;;10.57;9.68;;;;;;;22.77;56.75;99436.66;3602856;39;20393;-67
2021/06/08 10:29:19;;;;;;;11.77;10.75;;;;;;;22.89;56.38;99429.19;3605140;39;20055;-66
2021/06/08 10:31:47;;;;;;;12.63;11.48;;;;;;;22.89;56.01;99431.91;3614164;39;20036;-66
2021/06/08 10:34:36;;;;;;;11.73;10.63;;;;;;;22.84;56.15;99424.59;3602744;39;20048;-66
2021/06/08 10:37:08;;;;;;;11.90;10.77;;;;;;;22.63;56.56;99423.59;3611506;39;20342;-66
2021/06/08 10:39:35;;;;;;;12.65;11.55;;;;;;;22.81;56.00;99429.69;3610458;39;20071;-66
2021/06/08 10:42:04;;;;;;;12.43;11.23;;;;;;;22.80;56.48;99430.75;3609429;39;20031;-65
2021/06/08 10:44:33;;;;;;;12.65;11.35;;;;;;;22.72;56.57;99423.94;3610068;39;20400;-66
2021/06/08 10:47:08;;;;;;;11.95;10.85;;;;;;;22.92;56.79;99434.13;3609490;39;20055;-65
2021/06/08 10:49:39;;;;;;;13.43;11.70;;;;;;;22.97;55.56;99429.56;3600422;39;20039;-65
2021/06/08 10:52:10;;;;;;;13.40;12.07;;;;;;;23.05;55.59;99425.56;3609360;39;20081;-66
2021/06/08 10:54:39;;;;;;;12.13;11.07;;;;;;;23.14;55.74;99426.72;3609404;39;20132;-66
2021/06/08 10:57:12;;;;;;;12.10;10.90;;;;;;;23.10;55.93;99417.50;3608982;39;20079;-65
2021/06/08 10:59:40;;;;;;;11.90;10.70;;;;;;;23.04;56.31;99417.75;3609542;39;20300;-66
2021/06/08 11:02:08;;;;;;;11.90;10.52;;;;;;;23.12;56.47;99415.38;3599992;39;20404;-66
2021/06/08 11:04:51;;;;;;;11.63;10.63;;;;;;;23.29;55.81;99419.81;3600190;39;20047;-65
2021/06/08 11:07:52;;;;;;;12.90;11.63;;;;;;;23.42;55.87;99412.03;3609143;39;20141;-66
2021/06/08 11:10:57;;;;;;;12.13;10.95;;;;;;;23.34;55.35;99409.84;3611020;39;20050;-65
2021/06/08 11:13:45;;;;;;;12.60;11.30;;;;;;;23.18;55.80;99403.53;3611436;39;20059;-66
2021/06/08 11:16:33;;;;;;;14.00;12.70;;;;;;;23.17;55.44;99407.31;3611667;39;20090;-67
2021/06/08 11:19:04;;;;;;;11.63;10.40;;;;;;;23.09;55.61;99407.81;3613144;39;20367;-67
2021/06/08 11:21:33;;;;;;;13.38;10.93;;;;;;;23.38;55.47;99402.03;3614216;39;20035;-65
2021/06/08 11:24:02;;;;;;;12.35;10.98;;;;;;;23.57;54.60;99411.31;3612173;39;20055;-65
2021/06/08 11:26:51;;;;;;;13.63;12.32;;;;;;;23.55;54.98;99402.66;3608928;39;20043;-68
2021/06/08 11:29:46;;;;;;;20.98;18.45;;;;;;;23.77;54.48;99409.81;3608005;39;20047;-66
2021/06/08 11:32:45;;;;;;;13.82;12.52;;;;;;;23.71;53.76;99407.06;3607134;39;20051;-66